createdAt,value
2023-03-07T00:00:28.995Z,1.08
2023-03-07T00:03:31.415Z,1.08
2023-03-07T00:06:33.200Z,1.06
2023-03-07T00:09:34.929Z,1.04
2023-03-07T00:12:36.498Z,1.04
2023-03-07T00:15:39.383Z,1.03
2023-03-07T00:18:41.981Z,1.03
2023-03-07T00:21:43.565Z,1.03
2023-03-07T00:24:47.637Z,1.02
2023-03-07T00:27:49.250Z,1.01
2023-03-07T00:30:50.847Z,1.01
2023-03-07T00:33:52.524Z,1.00
2023-03-07T00:36:54.087Z,0.97
2023-03-07T00:39:55.674Z,0.99
2023-03-07T00:42:57.265Z,0.97
2023-03-07T00:45:59.568Z,0.92
2023-03-07T00:49:01.220Z,0.85
2023-03-07T00:52:03.672Z,0.82
2023-03-07T00:55:05.712Z,0.80
2023-03-07T00:58:07.365Z,0.76
2023-03-07T01:01:10.069Z,0.75
2023-03-07T01:04:11.748Z,0.72
2023-03-07T01:07:13.361Z,0.72
2023-03-07T01:10:15.410Z,0.74
2023-03-07T01:13:19.330Z,0.75
2023-03-07T01:16:24.149Z,0.75
2023-03-07T01:19:27.026Z,0.74
2023-03-07T01:22:28.696Z,0.72
2023-03-07T01:25:30.652Z,0.73
2023-03-07T01:28:32.269Z,0.75
2023-03-07T01:31:34.242Z,0.76
2023-03-07T01:34:36.627Z,0.74
2023-03-07T01:37:38.234Z,0.76
2023-03-07T01:40:40.067Z,0.77
2023-03-07T01:43:42.299Z,0.75
2023-03-07T01:46:55.770Z,0.78
2023-03-07T01:50:00.918Z,0.78
2023-03-07T01:53:02.614Z,0.80
2023-03-07T01:56:06.296Z,0.79
2023-03-07T01:59:08.826Z,0.80
2023-03-07T02:02:14.776Z,0.79
2023-03-07T02:05:21.917Z,0.80
2023-03-07T02:08:26.648Z,0.82
2023-03-07T02:11:28.356Z,0.83
2023-03-07T02:14:29.955Z,0.84
2023-03-07T02:17:31.989Z,0.85
2023-03-07T02:21:12.410Z,0.87
2023-03-07T02:24:34.303Z,0.86
2023-03-07T02:27:37.996Z,0.87
2023-03-07T02:30:53.646Z,0.87
2023-03-07T02:33:55.258Z,0.89
2023-03-07T02:37:07.036Z,0.89
2023-03-07T02:40:12.755Z,0.91
2023-03-07T02:43:14.918Z,0.93
2023-03-07T02:46:16.749Z,0.92
2023-03-07T02:49:18.376Z,0.93
2023-03-07T02:52:21.839Z,0.95
2023-03-07T02:55:23.426Z,0.94
2023-03-07T02:58:25.080Z,0.94
2023-03-07T03:01:27.033Z,0.94
2023-03-07T03:04:29.278Z,0.95
2023-03-07T03:07:30.907Z,0.93
2023-03-07T03:10:32.507Z,0.94
2023-03-07T03:13:34.500Z,0.94
2023-03-07T03:16:36.217Z,0.93
2023-03-07T03:19:37.812Z,0.93
2023-03-07T03:22:40.714Z,0.93
2023-03-07T03:25:42.376Z,0.94
2023-03-07T03:28:44.172Z,0.92
2023-03-07T03:31:45.852Z,0.89
2023-03-07T03:34:47.477Z,0.87
2023-03-07T03:37:49.279Z,0.84
2023-03-07T03:40:50.863Z,0.83
2023-03-07T03:43:52.723Z,0.81
2023-03-07T03:46:55.808Z,0.80
2023-03-07T03:49:57.539Z,0.78
2023-03-07T03:53:00.473Z,0.77
2023-03-07T03:56:11.838Z,0.75
2023-03-07T03:59:13.585Z,0.74
2023-03-07T04:02:15.529Z,0.72
2023-03-07T04:05:17.285Z,0.71
2023-03-07T04:08:18.831Z,0.71
2023-03-07T04:11:22.489Z,0.70
2023-03-07T04:14:24.123Z,0.71
2023-03-07T04:17:25.736Z,0.71
2023-03-07T04:20:27.284Z,0.72
2023-03-07T04:23:29.898Z,0.70
2023-03-07T04:26:31.596Z,0.69
2023-03-07T04:29:33.934Z,0.70
2023-03-07T04:32:35.632Z,0.70
2023-03-07T04:35:37.270Z,0.71
2023-03-07T04:38:39.322Z,0.72
2023-03-07T04:41:40.908Z,0.73
2023-03-07T04:44:42.492Z,0.72
2023-03-07T04:47:44.143Z,0.72
2023-03-07T04:50:49.224Z,0.69
2023-03-07T04:53:50.924Z,0.69
2023-03-07T04:56:52.523Z,0.67
2023-03-07T04:59:54.083Z,0.64
2023-03-07T05:02:58.831Z,0.62
2023-03-07T05:06:06.571Z,0.58
2023-03-07T05:09:08.242Z,0.56
2023-03-07T05:12:10.180Z,0.55
2023-03-07T05:15:11.801Z,0.53
2023-03-07T05:18:13.350Z,0.49
2023-03-07T05:21:14.965Z,0.47
2023-03-07T05:24:16.627Z,0.45
2023-03-07T05:27:18.357Z,0.44
2023-03-07T05:30:21.688Z,0.41
2023-03-07T05:33:23.362Z,0.40
2023-03-07T05:36:25.008Z,0.39
2023-03-07T05:39:27.805Z,0.39
2023-03-07T05:42:29.347Z,0.39
2023-03-07T05:45:30.968Z,0.47
2023-03-07T05:48:32.557Z,0.60
2023-03-07T05:51:34.156Z,0.66
2023-03-07T05:54:35.699Z,0.65
2023-03-07T05:57:37.338Z,0.65
2023-03-07T06:00:38.887Z,0.63
2023-03-07T06:03:40.587Z,0.60
2023-03-07T06:06:42.201Z,0.58
2023-03-07T06:09:43.764Z,0.58
2023-03-07T06:12:49.824Z,0.57
2023-03-07T06:15:53.044Z,0.53
2023-03-07T06:18:54.654Z,0.50
2023-03-07T06:21:56.248Z,0.49
2023-03-07T06:24:57.899Z,0.49
2023-03-07T06:28:01.440Z,0.48
2023-03-07T06:31:09.794Z,0.48
2023-03-07T06:34:11.493Z,0.49
2023-03-07T06:37:13.107Z,0.53
2023-03-07T06:40:14.716Z,0.54
2023-03-07T06:43:16.250Z,0.56
2023-03-07T06:46:18.278Z,0.58
2023-03-07T06:49:19.847Z,0.58
2023-03-07T06:52:22.336Z,0.59
2023-03-07T06:55:23.936Z,0.60
2023-03-07T06:58:25.552Z,0.60
2023-03-07T07:01:27.188Z,0.59
2023-03-07T07:04:29.451Z,0.58
2023-03-07T07:07:31.783Z,0.60
2023-03-07T07:10:33.460Z,0.62
2023-03-07T07:13:35.090Z,0.64
2023-03-07T07:16:37.341Z,0.66
2023-03-07T07:19:39.272Z,0.68
2023-03-07T07:22:40.870Z,0.71
2023-03-07T07:25:42.468Z,0.75
2023-03-07T07:28:44.099Z,0.76
2023-03-07T07:31:45.758Z,0.76
2023-03-07T07:34:47.509Z,0.78
2023-03-07T07:37:49.091Z,0.78
2023-03-07T07:40:50.870Z,0.80
2023-03-07T07:43:54.068Z,0.81
2023-03-07T07:46:55.688Z,0.82
2023-03-07T07:49:57.721Z,0.84
2023-03-07T07:52:59.351Z,0.85
2023-03-07T07:56:00.929Z,0.88
2023-03-07T07:59:02.515Z,0.90
2023-03-07T08:02:04.247Z,0.91
2023-03-07T08:05:10.731Z,0.92
2023-03-07T08:08:12.319Z,0.92
2023-03-07T08:11:14.840Z,0.93
2023-03-07T08:14:16.503Z,0.92
2023-03-07T08:17:18.054Z,0.96
2023-03-07T08:20:23.397Z,0.98
2023-03-07T08:23:25.047Z,1.00
2023-03-07T08:26:27.524Z,1.04
2023-03-07T08:29:29.183Z,1.08
2023-03-07T08:32:30.828Z,1.10
2023-03-07T08:35:32.569Z,1.12
2023-03-07T08:38:34.207Z,1.14
2023-03-07T08:41:35.896Z,1.16
2023-03-07T08:44:37.485Z,1.19
2023-03-07T08:47:39.102Z,1.22
2023-03-07T08:50:40.712Z,1.28
2023-03-07T08:53:43.632Z,1.32
2023-03-07T08:56:45.209Z,1.37
2023-03-07T08:59:46.876Z,1.42
2023-03-07T09:02:48.781Z,1.44
2023-03-07T09:05:50.364Z,1.48
2023-03-07T09:08:52.129Z,1.53
2023-03-07T09:11:53.740Z,1.57
2023-03-07T09:14:55.471Z,1.60
2023-03-07T09:17:57.175Z,1.62
2023-03-07T09:21:02.537Z,1.68
2023-03-07T09:24:04.660Z,1.76
2023-03-07T09:27:06.230Z,1.83
2023-03-07T09:30:08.563Z,1.90
2023-03-07T09:33:10.237Z,1.98
2023-03-07T09:36:13.076Z,2.03
2023-03-07T09:39:14.872Z,2.10
2023-03-07T09:42:27.400Z,2.19
2023-03-07T09:45:38.966Z,2.25
2023-03-07T09:49:06.715Z,2.30
2023-03-07T09:52:14.622Z,2.39
2023-03-07T09:55:20.105Z,2.45
2023-03-07T09:58:24.175Z,2.47
2023-03-07T10:01:31.023Z,2.47
2023-03-07T10:04:44.254Z,2.49
2023-03-07T10:07:45.913Z,2.48
2023-03-07T10:11:09.025Z,2.47
2023-03-07T10:14:25.858Z,2.47
2023-03-07T10:17:39.814Z,2.55
2023-03-07T10:20:51.907Z,2.74
2023-03-07T10:24:15.220Z,2.88
2023-03-07T10:27:17.940Z,3.16
2023-03-07T10:30:21.082Z,3.29
2023-03-07T10:33:22.780Z,3.37
2023-03-07T10:36:42.582Z,3.43
2023-03-07T10:39:54.261Z,3.43
2023-03-07T10:42:58.295Z,3.46
2023-03-07T10:46:23.675Z,3.46
2023-03-07T10:49:36.775Z,3.36
2023-03-07T10:52:53.605Z,3.26
2023-03-07T10:56:16.577Z,3.19
2023-03-07T10:59:25.367Z,3.14
2023-03-07T11:02:36.894Z,3.09
2023-03-07T11:05:38.945Z,3.10
2023-03-07T11:08:45.446Z,3.12
2023-03-07T11:11:57.045Z,3.12
2023-03-07T11:15:09.739Z,3.15
2023-03-07T11:18:28.405Z,3.15
2023-03-07T11:21:33.302Z,3.15
2023-03-07T11:24:39.721Z,3.15
2023-03-07T11:27:58.588Z,3.28
2023-03-07T11:31:42.835Z,3.31
2023-03-07T11:34:52.628Z,3.30
2023-03-07T11:38:08.990Z,3.28
2023-03-07T11:41:19.957Z,3.24
2023-03-07T11:44:54.510Z,3.22
2023-03-07T11:48:11.418Z,3.22
2023-03-07T11:51:36.836Z,3.28
2023-03-07T11:55:12.492Z,3.76
2023-03-07T11:58:41.669Z,3.91
2023-03-07T12:01:55.488Z,3.89
2023-03-07T12:05:05.880Z,3.87
2023-03-07T12:08:16.102Z,3.81
2023-03-07T12:11:39.384Z,3.79
2023-03-07T12:15:21.990Z,3.71
2023-03-07T12:19:08.316Z,3.61
2023-03-07T12:22:42.319Z,3.50
2023-03-07T12:25:48.718Z,3.46
2023-03-07T12:29:24.879Z,3.50
2023-03-07T12:32:28.107Z,3.56
2023-03-07T12:35:43.346Z,3.64
2023-03-07T12:39:17.575Z,3.73
2023-03-07T12:42:31.753Z,3.82
2023-03-07T12:45:45.657Z,3.92
2023-03-07T12:49:10.468Z,4.03
2023-03-07T12:52:25.223Z,4.04
2023-03-07T12:55:31.544Z,4.00
2023-03-07T12:58:47.470Z,3.97
2023-03-07T13:02:10.653Z,3.95
2023-03-07T13:05:22.380Z,3.93
2023-03-07T13:08:25.519Z,3.93
2023-03-07T13:11:30.021Z,3.99
2023-03-07T13:14:45.290Z,4.01
2023-03-07T13:17:46.829Z,4.07
2023-03-07T13:21:07.352Z,4.18
2023-03-07T13:24:39.964Z,4.24
2023-03-07T13:27:41.492Z,4.25
2023-03-07T13:31:13.575Z,4.23
2023-03-07T13:34:46.968Z,4.18
2023-03-07T13:37:49.799Z,4.10
2023-03-07T13:40:53.126Z,4.30
2023-03-07T13:43:59.871Z,4.37
2023-03-07T13:47:02.772Z,4.34
2023-03-07T13:50:36.140Z,4.27
2023-03-07T13:53:46.510Z,4.20
2023-03-07T13:56:49.086Z,4.16
2023-03-07T13:59:50.795Z,4.15
2023-03-07T14:02:53.967Z,4.17
2023-03-07T14:06:00.190Z,4.25
2023-03-07T14:09:05.320Z,4.29
2023-03-07T14:12:32.680Z,4.36
2023-03-07T14:15:47.874Z,4.34
2023-03-07T14:19:01.762Z,4.28
2023-03-07T14:22:34.579Z,4.15
2023-03-07T14:25:41.873Z,4.00
2023-03-07T14:28:59.639Z,3.85
2023-03-07T14:32:01.575Z,3.71
2023-03-07T14:35:03.343Z,3.57
2023-03-07T14:38:22.130Z,3.40
2023-03-07T14:41:39.337Z,3.32
2023-03-07T14:45:19.918Z,3.27
2023-03-07T14:49:03.434Z,3.30
2023-03-07T14:52:05.508Z,3.30
2023-03-07T14:55:16.046Z,3.32
2023-03-07T14:58:32.513Z,3.33
2023-03-07T15:01:40.269Z,3.33
2023-03-07T15:04:42.130Z,3.30
2023-03-07T15:07:43.874Z,3.27
2023-03-07T15:10:49.037Z,3.26
2023-03-07T15:13:54.735Z,3.25
2023-03-07T15:17:20.441Z,3.39
2023-03-07T15:20:27.549Z,3.67
2023-03-07T15:23:29.962Z,3.63
2023-03-07T15:26:33.237Z,3.57
2023-03-07T15:29:34.986Z,3.48
2023-03-07T15:32:44.173Z,3.38
2023-03-07T15:36:07.938Z,3.31
2023-03-07T15:39:34.710Z,3.28
2023-03-07T15:43:15.036Z,3.24
2023-03-07T15:46:19.035Z,3.18
2023-03-07T15:49:51.054Z,3.15
2023-03-07T15:52:56.135Z,3.11
2023-03-07T15:56:01.441Z,3.09
2023-03-07T15:59:17.689Z,3.11
2023-03-07T16:02:31.420Z,3.11
2023-03-07T16:05:37.036Z,3.11
2023-03-07T16:08:38.730Z,3.09
2023-03-07T16:11:41.719Z,3.06
2023-03-07T16:14:43.538Z,3.02
2023-03-07T16:17:47.091Z,2.96
2023-03-07T16:20:48.789Z,2.89
2023-03-07T16:23:53.561Z,2.84
2023-03-07T16:26:55.390Z,2.80
2023-03-07T16:29:58.732Z,2.77
2023-03-07T16:33:00.635Z,2.74
2023-03-07T16:36:02.694Z,2.71
2023-03-07T16:39:04.612Z,2.67
2023-03-07T16:42:07.542Z,2.64
2023-03-07T16:45:16.564Z,2.61
2023-03-07T16:48:18.220Z,2.56
2023-03-07T16:51:22.285Z,2.51
2023-03-07T16:54:23.945Z,2.45
2023-03-07T16:57:25.809Z,2.40
2023-03-07T17:00:28.748Z,2.37
2023-03-07T17:03:30.712Z,2.33
2023-03-07T17:06:39.311Z,2.31
2023-03-07T17:09:41.296Z,2.29
2023-03-07T17:12:44.050Z,2.27
2023-03-07T17:15:47.097Z,2.30
2023-03-07T17:18:48.729Z,2.26
2023-03-07T17:21:50.668Z,2.23
2023-03-07T17:24:52.316Z,2.18
2023-03-07T17:28:04.464Z,2.13
2023-03-07T17:31:06.118Z,2.07
2023-03-07T17:34:17.958Z,2.05
2023-03-07T17:37:20.010Z,2.11
2023-03-07T17:40:22.965Z,2.17
2023-03-07T17:43:25.515Z,2.17
2023-03-07T17:46:27.127Z,2.13
2023-03-07T17:49:34.608Z,2.10
2023-03-07T17:52:36.281Z,2.06
2023-03-07T17:55:38.936Z,2.03
2023-03-07T17:58:40.857Z,1.98
2023-03-07T18:01:42.777Z,1.96
2023-03-07T18:04:44.490Z,1.94
2023-03-07T18:07:46.988Z,1.93
2023-03-07T18:10:48.560Z,1.88
2023-03-07T18:13:50.294Z,1.86
2023-03-07T18:16:52.387Z,1.81
2023-03-07T18:19:53.938Z,1.77
2023-03-07T18:22:55.919Z,1.74
2023-03-07T18:25:59.241Z,1.69
2023-03-07T18:29:00.874Z,1.65
2023-03-07T18:32:02.455Z,1.61
2023-03-07T18:35:05.128Z,1.56
2023-03-07T18:38:06.692Z,1.51
2023-03-07T18:41:11.830Z,1.49
2023-03-07T18:44:13.488Z,1.45
2023-03-07T18:47:15.148Z,1.38
2023-03-07T18:50:17.164Z,1.35
2023-03-07T18:53:18.743Z,1.28
2023-03-07T18:56:20.717Z,1.22
2023-03-07T18:59:22.351Z,1.16
2023-03-07T19:02:23.974Z,1.11
2023-03-07T19:05:25.597Z,1.07
2023-03-07T19:08:27.274Z,1.03
2023-03-07T19:11:29.254Z,0.98
2023-03-07T19:14:33.152Z,0.95
2023-03-07T19:17:39.612Z,0.91
2023-03-07T19:20:41.584Z,0.86
2023-03-07T19:23:43.302Z,0.80
2023-03-07T19:26:44.908Z,0.75
2023-03-07T19:29:46.592Z,0.70
2023-03-07T19:32:48.252Z,0.64
2023-03-07T19:35:49.973Z,0.59
2023-03-07T19:38:54.577Z,0.53
2023-03-07T19:41:56.258Z,0.48
2023-03-07T19:44:57.890Z,0.44
2023-03-07T19:47:59.624Z,0.41
2023-03-07T19:51:01.698Z,0.40
2023-03-07T19:54:04.263Z,0.39
2023-03-07T19:57:06.436Z,0.37
2023-03-07T20:00:08.907Z,0.36
2023-03-07T20:03:17.650Z,0.35
2023-03-07T20:06:22.845Z,0.35
2023-03-07T20:09:24.535Z,0.36
2023-03-07T20:12:26.107Z,0.34
2023-03-07T20:15:27.757Z,0.34
2023-03-07T20:18:29.364Z,0.34
2023-03-07T20:21:30.977Z,0.34
2023-03-07T20:24:33.345Z,0.36
2023-03-07T20:27:34.951Z,0.49
2023-03-07T20:30:36.644Z,0.73
2023-03-07T20:33:40.023Z,0.75
2023-03-07T20:36:42.330Z,0.73
2023-03-07T20:39:44.086Z,0.75
2023-03-07T20:42:45.866Z,0.74
2023-03-07T20:45:47.420Z,0.75
2023-03-07T20:48:52.100Z,0.76
2023-03-07T20:51:53.705Z,0.72
2023-03-07T20:54:55.288Z,0.68
2023-03-07T20:57:56.874Z,0.64
2023-03-07T21:00:59.210Z,0.59
2023-03-07T21:04:08.083Z,0.54
2023-03-07T21:07:09.690Z,0.51
2023-03-07T21:10:11.965Z,0.47
2023-03-07T21:13:13.861Z,0.40
2023-03-07T21:16:18.319Z,0.36
2023-03-07T21:19:20.244Z,0.34
2023-03-07T21:22:21.975Z,0.33
2023-03-07T21:25:23.601Z,0.29
2023-03-07T21:28:25.176Z,0.28
2023-03-07T21:31:28.891Z,0.24
2023-03-07T21:34:30.606Z,0.21
2023-03-07T21:37:35.279Z,0.18
2023-03-07T21:40:36.856Z,0.12
2023-03-07T21:43:38.492Z,0.09
2023-03-07T21:46:40.158Z,0.07
2023-03-07T21:49:41.770Z,0.03
2023-03-07T21:52:45.922Z,-0.03
2023-03-07T21:55:56.941Z,-0.08
2023-03-07T21:58:58.581Z,-0.11
2023-03-07T22:02:00.194Z,-0.13
2023-03-07T22:05:01.837Z,-0.18
2023-03-07T22:08:03.409Z,-0.22
2023-03-07T22:11:06.952Z,-0.27
2023-03-07T22:14:08.563Z,-0.34
2023-03-07T22:17:10.196Z,-0.38
2023-03-07T22:20:12.208Z,-0.41
2023-03-07T22:23:13.823Z,-0.44
2023-03-07T22:26:15.421Z,-0.48
2023-03-07T22:29:17.098Z,-0.50
2023-03-07T22:32:18.680Z,-0.54
2023-03-07T22:35:20.284Z,-0.58
2023-03-07T22:38:21.879Z,-0.63
2023-03-07T22:41:23.885Z,-0.69
2023-03-07T22:44:25.488Z,-0.72
2023-03-07T22:47:27.175Z,-0.75
2023-03-07T22:50:29.023Z,-0.77
2023-03-07T22:53:32.416Z,-0.79
2023-03-07T22:56:34.848Z,-0.80
2023-03-07T22:59:36.640Z,-0.81
2023-03-07T23:02:38.223Z,-0.83
2023-03-07T23:05:39.914Z,-0.85
2023-03-07T23:08:45.603Z,-0.85
2023-03-07T23:11:48.308Z,-0.87
2023-03-07T23:14:49.880Z,-0.89
2023-03-07T23:17:51.694Z,-0.51
2023-03-07T23:20:53.370Z,-0.34
2023-03-07T23:23:56.247Z,-0.33
2023-03-07T23:26:57.869Z,-0.40
2023-03-07T23:29:59.718Z,-0.50
2023-03-07T23:33:01.330Z,-0.58
2023-03-07T23:36:02.957Z,-0.63
2023-03-07T23:39:04.679Z,-0.70
2023-03-07T23:42:06.434Z,-0.75
2023-03-07T23:45:08.673Z,-0.78
2023-03-07T23:48:10.920Z,-0.85
2023-03-07T23:51:12.976Z,-0.91
2023-03-07T23:54:14.885Z,-0.98
2023-03-07T23:57:16.492Z,-1.02
